METAR Data
IDs: Format: Raw Decoded Include TAF

Data at: 1508 UTC 27 Nov 2021

EDMA 271450Z 18006KT 9999 SCT024 04/00 Q0992